createdAt,value
2022-12-24T00:01:36.575Z,100.00
2022-12-24T00:04:05.020Z,100.00
2022-12-24T00:06:33.087Z,100.00
2022-12-24T00:09:03.247Z,100.00
2022-12-24T00:11:31.420Z,100.00
2022-12-24T00:13:59.784Z,100.00
2022-12-24T00:16:28.120Z,100.00
2022-12-24T00:18:56.389Z,100.00
2022-12-24T00:21:24.578Z,100.00
2022-12-24T00:23:52.947Z,100.00
2022-12-24T00:26:22.242Z,100.00
2022-12-24T00:28:50.732Z,100.00
2022-12-24T00:31:20.409Z,100.00
2022-12-24T00:33:49.289Z,100.00
2022-12-24T00:36:18.388Z,100.00
2022-12-24T00:38:47.403Z,100.00
2022-12-24T00:41:25.858Z,100.00
2022-12-24T00:43:58.118Z,100.00
2022-12-24T00:46:27.814Z,100.00
2022-12-24T00:48:56.138Z,100.00
2022-12-24T00:51:25.098Z,100.00
2022-12-24T00:53:54.348Z,100.00
2022-12-24T00:56:23.396Z,100.00
2022-12-24T00:58:52.095Z,100.00
2022-12-24T01:01:21.798Z,100.00
2022-12-24T01:03:51.253Z,100.00
2022-12-24T01:06:19.833Z,100.00
2022-12-24T01:08:51.731Z,100.00
2022-12-24T01:11:20.382Z,100.00
2022-12-24T01:13:48.678Z,100.00
2022-12-24T01:16:19.682Z,100.00
2022-12-24T01:18:49.519Z,100.00
2022-12-24T01:21:18.404Z,100.00
2022-12-24T01:23:46.722Z,100.00
2022-12-24T01:26:14.707Z,100.00
2022-12-24T01:28:43.323Z,100.00
2022-12-24T01:31:13.255Z,100.00
2022-12-24T01:33:41.771Z,100.00
2022-12-24T01:36:11.961Z,100.00
2022-12-24T01:38:40.478Z,100.00
2022-12-24T01:41:26.396Z,100.00
2022-12-24T01:43:54.740Z,100.00
2022-12-24T01:46:27.566Z,100.00
2022-12-24T01:48:58.571Z,100.00
2022-12-24T01:51:35.802Z,100.00
2022-12-24T01:54:08.328Z,100.00
2022-12-24T01:56:38.526Z,100.00
2022-12-24T01:59:11.535Z,100.00
2022-12-24T02:01:40.143Z,100.00
2022-12-24T02:04:18.419Z,100.00
2022-12-24T02:06:47.845Z,100.00
2022-12-24T02:09:16.393Z,100.00
2022-12-24T02:11:45.035Z,100.00
2022-12-24T02:14:14.409Z,100.00
2022-12-24T02:16:48.603Z,100.00
2022-12-24T02:19:53.986Z,100.00
2022-12-24T02:22:38.103Z,100.00
2022-12-24T02:25:26.442Z,100.00
2022-12-24T02:27:58.622Z,100.00
2022-12-24T02:30:32.437Z,100.00
2022-12-24T02:33:14.466Z,100.00
2022-12-24T02:35:50.403Z,100.00
2022-12-24T02:38:27.157Z,100.00
2022-12-24T02:41:00.252Z,100.00
2022-12-24T02:43:34.119Z,100.00
2022-12-24T02:46:08.311Z,100.00
2022-12-24T02:48:38.918Z,100.00
2022-12-24T02:51:09.589Z,100.00
2022-12-24T02:53:38.728Z,100.00
2022-12-24T02:56:19.949Z,100.00
2022-12-24T02:59:01.051Z,100.00
2022-12-24T03:01:42.644Z,100.00
2022-12-24T03:04:19.355Z,100.00
2022-12-24T03:06:54.459Z,100.00
2022-12-24T03:09:28.376Z,100.00
2022-12-24T03:12:00.734Z,100.00
2022-12-24T03:14:30.976Z,100.00
2022-12-24T03:17:02.972Z,100.00
2022-12-24T03:19:32.624Z,100.00
2022-12-24T03:22:03.934Z,100.00
2022-12-24T03:24:31.939Z,100.00
2022-12-24T03:27:00.972Z,100.00
2022-12-24T03:29:29.141Z,100.00
2022-12-24T03:32:03.512Z,100.00
2022-12-24T03:34:31.917Z,100.00
2022-12-24T03:37:00.445Z,100.00
2022-12-24T03:39:28.388Z,100.00
2022-12-24T03:41:57.160Z,100.00
2022-12-24T03:44:25.220Z,100.00
2022-12-24T03:46:53.567Z,100.00
2022-12-24T03:49:22.998Z,100.00
2022-12-24T03:51:51.168Z,100.00
2022-12-24T03:54:19.215Z,100.00
2022-12-24T03:56:47.600Z,100.00
2022-12-24T03:59:15.658Z,100.00
2022-12-24T04:01:44.048Z,100.00
2022-12-24T04:04:12.156Z,100.00
2022-12-24T04:06:41.695Z,100.00
2022-12-24T04:09:10.366Z,100.00
2022-12-24T04:11:38.776Z,100.00
2022-12-24T04:14:06.641Z,100.00
2022-12-24T04:16:35.017Z,100.00
2022-12-24T04:19:03.846Z,100.00
2022-12-24T04:21:31.996Z,100.00
2022-12-24T04:24:01.275Z,100.00
2022-12-24T04:26:29.665Z,100.00
2022-12-24T04:28:57.562Z,100.00
2022-12-24T04:31:25.815Z,100.00
2022-12-24T04:33:54.265Z,100.00
2022-12-24T04:36:22.645Z,100.00
2022-12-24T04:38:50.846Z,100.00
2022-12-24T04:41:24.216Z,100.00
2022-12-24T04:43:54.021Z,100.00
2022-12-24T04:46:24.810Z,100.00
2022-12-24T04:48:54.306Z,100.00
2022-12-24T04:51:23.159Z,100.00
2022-12-24T04:53:52.227Z,100.00
2022-12-24T04:56:24.224Z,100.00
2022-12-24T04:58:53.408Z,100.00
2022-12-24T05:01:23.527Z,100.00
2022-12-24T05:03:51.906Z,100.00
2022-12-24T05:06:22.736Z,100.00
2022-12-24T05:08:50.842Z,100.00
2022-12-24T05:11:18.994Z,100.00
2022-12-24T05:13:48.486Z,100.00
2022-12-24T05:16:18.218Z,100.00
2022-12-24T05:18:46.199Z,100.00
2022-12-24T05:21:17.222Z,100.00
2022-12-24T05:24:02.532Z,100.00
2022-12-24T05:26:34.145Z,100.00
2022-12-24T05:29:05.102Z,100.00
2022-12-24T05:31:34.798Z,100.00
2022-12-24T05:34:03.237Z,100.00
2022-12-24T05:36:31.921Z,100.00
2022-12-24T05:39:00.516Z,100.00
2022-12-24T05:41:28.893Z,100.00
2022-12-24T05:43:56.841Z,100.00
2022-12-24T05:46:26.925Z,100.00
2022-12-24T05:48:55.005Z,100.00
2022-12-24T05:51:24.128Z,100.00
2022-12-24T05:53:52.915Z,100.00
2022-12-24T05:56:23.404Z,100.00
2022-12-24T05:58:52.057Z,100.00
2022-12-24T06:01:20.804Z,100.00
2022-12-24T06:03:50.459Z,100.00
2022-12-24T06:06:21.129Z,100.00
2022-12-24T06:08:50.175Z,100.00
2022-12-24T06:11:20.432Z,100.00
2022-12-24T06:13:48.827Z,100.00
2022-12-24T06:16:20.921Z,100.00
2022-12-24T06:18:50.904Z,100.00
2022-12-24T06:21:19.814Z,100.00
2022-12-24T06:23:48.350Z,100.00
2022-12-24T06:26:19.837Z,100.00
2022-12-24T06:28:49.127Z,100.00
2022-12-24T06:31:19.970Z,100.00
2022-12-24T06:33:48.683Z,100.00
2022-12-24T06:36:20.606Z,100.00
2022-12-24T06:38:49.173Z,100.00
2022-12-24T06:41:17.781Z,100.00
2022-12-24T06:43:46.854Z,100.00
2022-12-24T06:46:16.263Z,100.00
2022-12-24T06:48:45.467Z,100.00
2022-12-24T06:51:14.551Z,100.00
2022-12-24T06:53:43.993Z,100.00
2022-12-24T06:56:14.772Z,100.00
2022-12-24T06:58:43.812Z,100.00
2022-12-24T07:01:14.205Z,100.00
2022-12-24T07:03:42.447Z,100.00
2022-12-24T07:06:16.298Z,100.00
2022-12-24T07:08:45.717Z,100.00
2022-12-24T07:11:13.924Z,100.00
2022-12-24T07:13:41.981Z,100.00
2022-12-24T07:16:10.525Z,100.00
2022-12-24T07:18:38.784Z,100.00
2022-12-24T07:21:07.554Z,100.00
2022-12-24T07:23:35.733Z,100.00
2022-12-24T07:26:07.257Z,100.00
2022-12-24T07:28:35.571Z,100.00
2022-12-24T07:31:04.030Z,100.00
2022-12-24T07:33:32.224Z,100.00
2022-12-24T07:36:02.073Z,100.00
2022-12-24T07:38:30.876Z,100.00
2022-12-24T07:40:59.610Z,100.00
2022-12-24T07:43:29.515Z,100.00
2022-12-24T07:45:58.694Z,100.00
2022-12-24T07:48:28.314Z,100.00
2022-12-24T07:50:57.021Z,100.00
2022-12-24T07:53:26.504Z,100.00
2022-12-24T07:55:55.531Z,100.00
2022-12-24T07:58:23.920Z,100.00
2022-12-24T08:00:58.853Z,100.00
2022-12-24T08:03:27.325Z,100.00
2022-12-24T08:05:56.012Z,100.00
2022-12-24T08:08:24.167Z,100.00
2022-12-24T08:10:52.766Z,100.00
2022-12-24T08:13:20.813Z,100.00
2022-12-24T08:15:49.109Z,100.00
2022-12-24T08:18:18.443Z,100.00
2022-12-24T08:20:46.774Z,100.00
2022-12-24T08:23:14.846Z,100.00
2022-12-24T08:25:43.982Z,100.00
2022-12-24T08:28:12.074Z,100.00
2022-12-24T08:30:40.522Z,100.00
2022-12-24T08:33:08.463Z,100.00
2022-12-24T08:35:38.236Z,100.00
2022-12-24T08:38:06.328Z,100.00
2022-12-24T08:40:34.533Z,100.00
2022-12-24T08:43:03.565Z,100.00
2022-12-24T08:45:37.919Z,100.00
2022-12-24T08:48:08.637Z,100.00
2022-12-24T08:50:41.082Z,100.00
2022-12-24T08:53:09.556Z,100.00
2022-12-24T08:55:39.488Z,100.00
2022-12-24T08:58:07.567Z,100.00
2022-12-24T09:00:35.945Z,100.00
2022-12-24T09:03:04.207Z,100.00
2022-12-24T09:05:33.019Z,100.00
2022-12-24T09:08:02.715Z,100.00
2022-12-24T09:10:31.172Z,100.00
2022-12-24T09:12:59.067Z,100.00
2022-12-24T09:15:27.411Z,100.00
2022-12-24T09:17:55.485Z,100.00
2022-12-24T09:20:23.898Z,100.00
2022-12-24T09:22:52.041Z,100.00
2022-12-24T09:25:21.700Z,100.00
2022-12-24T09:27:49.690Z,100.00
2022-12-24T09:30:18.212Z,100.00
2022-12-24T09:32:46.184Z,100.00
2022-12-24T09:35:14.438Z,100.00
2022-12-24T09:37:42.798Z,100.00
2022-12-24T09:40:24.528Z,100.00
2022-12-24T09:42:54.887Z,100.00
2022-12-24T09:45:29.366Z,100.00
2022-12-24T09:48:01.113Z,100.00
2022-12-24T09:50:36.706Z,100.00
2022-12-24T09:53:12.357Z,100.00
2022-12-24T09:55:47.002Z,100.00
2022-12-24T09:58:21.533Z,100.00
2022-12-24T10:00:50.853Z,100.00
2022-12-24T10:03:19.526Z,100.00
2022-12-24T10:05:58.340Z,100.00
2022-12-24T10:08:33.583Z,100.00
2022-12-24T10:11:12.785Z,100.00
2022-12-24T10:13:55.160Z,100.00
2022-12-24T10:16:25.515Z,100.00
2022-12-24T10:19:01.403Z,100.00
2022-12-24T10:21:42.456Z,100.00
2022-12-24T10:24:17.581Z,100.00
2022-12-24T10:26:51.744Z,100.00
2022-12-24T10:29:24.586Z,100.00
2022-12-24T10:31:57.683Z,99.18
2022-12-24T10:34:31.647Z,99.07
2022-12-24T10:37:02.975Z,99.42
2022-12-24T10:39:31.206Z,99.29
2022-12-24T10:42:02.195Z,99.46
2022-12-24T10:44:33.713Z,99.00
2022-12-24T10:47:02.273Z,99.35
2022-12-24T10:49:37.312Z,99.65
2022-12-24T10:52:12.261Z,98.81
2022-12-24T10:55:08.445Z,99.07
2022-12-24T10:57:39.642Z,99.25
2022-12-24T11:00:20.602Z,99.57
2022-12-24T11:02:51.074Z,100.00
2022-12-24T11:05:30.815Z,100.00
2022-12-24T11:08:02.295Z,100.00
2022-12-24T11:10:31.041Z,99.59
2022-12-24T11:13:35.695Z,99.77
2022-12-24T11:15:51.124Z,100.00
2022-12-24T11:18:19.339Z,100.00
2022-12-24T11:20:53.357Z,100.00
2022-12-24T11:23:23.864Z,100.00
2022-12-24T11:25:52.961Z,100.00
2022-12-24T11:28:25.009Z,100.00
2022-12-24T11:30:59.549Z,100.00
2022-12-24T11:33:28.435Z,100.00
2022-12-24T11:36:02.437Z,100.00
2022-12-24T11:38:33.380Z,100.00
2022-12-24T11:41:05.603Z,100.00
2022-12-24T11:43:48.451Z,100.00
2022-12-24T11:46:37.993Z,100.00
2022-12-24T11:49:23.452Z,100.00
2022-12-24T11:52:14.959Z,100.00
2022-12-24T11:54:53.348Z,100.00
2022-12-24T11:57:25.104Z,100.00
2022-12-24T11:59:54.826Z,100.00
2022-12-24T12:02:26.669Z,100.00
2022-12-24T12:04:59.135Z,100.00
2022-12-24T12:07:31.094Z,100.00
2022-12-24T12:10:04.318Z,100.00
2022-12-24T12:12:36.319Z,100.00
2022-12-24T12:15:13.358Z,100.00
2022-12-24T12:17:47.437Z,100.00
2022-12-24T12:20:20.884Z,100.00
2022-12-24T12:22:59.469Z,100.00
2022-12-24T12:25:33.299Z,100.00
2022-12-24T12:28:04.551Z,100.00
2022-12-24T12:30:36.812Z,100.00
2022-12-24T12:33:14.771Z,100.00
2022-12-24T12:35:44.695Z,100.00
2022-12-24T12:38:17.467Z,100.00
2022-12-24T12:41:02.420Z,100.00
2022-12-24T12:43:42.427Z,100.00
2022-12-24T12:46:22.046Z,100.00
2022-12-24T12:49:10.138Z,100.00
2022-12-24T12:51:50.717Z,100.00
2022-12-24T12:54:39.716Z,100.00
2022-12-24T12:57:12.490Z,100.00
2022-12-24T12:59:46.005Z,100.00
2022-12-24T13:02:38.837Z,100.00
2022-12-24T13:05:48.239Z,100.00
2022-12-24T13:08:41.007Z,100.00
2022-12-24T13:11:34.038Z,100.00
2022-12-24T13:14:23.826Z,100.00
2022-12-24T13:17:33.385Z,100.00
2022-12-24T13:20:21.487Z,100.00
2022-12-24T13:22:51.813Z,100.00
2022-12-24T13:25:24.809Z,100.00
2022-12-24T13:27:52.935Z,100.00
2022-12-24T13:30:36.342Z,100.00
2022-12-24T13:33:06.079Z,100.00
2022-12-24T13:35:40.268Z,100.00
2022-12-24T13:38:43.657Z,100.00
2022-12-24T13:41:51.235Z,100.00
2022-12-24T13:44:32.671Z,100.00
2022-12-24T13:47:04.981Z,100.00
2022-12-24T13:49:40.368Z,100.00
2022-12-24T13:52:29.150Z,100.00
2022-12-24T13:55:15.732Z,100.00
2022-12-24T13:57:49.153Z,100.00
2022-12-24T14:00:39.000Z,100.00
2022-12-24T14:03:22.924Z,100.00
2022-12-24T14:05:55.522Z,100.00
2022-12-24T14:08:31.478Z,100.00
2022-12-24T14:11:08.135Z,100.00
2022-12-24T14:14:15.896Z,100.00
2022-12-24T14:16:48.723Z,100.00
2022-12-24T14:19:20.953Z,100.00
2022-12-24T14:21:56.493Z,100.00
2022-12-24T14:24:27.170Z,100.00
2022-12-24T14:26:58.232Z,100.00
2022-12-24T14:29:31.113Z,100.00
2022-12-24T14:32:04.102Z,100.00
2022-12-24T14:34:32.997Z,100.00
2022-12-24T14:37:05.230Z,100.00
2022-12-24T14:39:36.912Z,100.00
2022-12-24T14:42:19.243Z,100.00
2022-12-24T14:44:57.279Z,100.00
2022-12-24T14:47:35.377Z,100.00
2022-12-24T14:50:37.284Z,100.00
2022-12-24T14:53:19.199Z,100.00
2022-12-24T14:55:48.466Z,100.00
2022-12-24T14:58:26.087Z,100.00
2022-12-24T15:00:57.722Z,100.00
2022-12-24T15:03:27.551Z,100.00
2022-12-24T15:06:00.018Z,100.00
2022-12-24T15:08:36.056Z,100.00
2022-12-24T15:11:06.923Z,100.00
2022-12-24T15:13:37.700Z,100.00
2022-12-24T15:16:09.390Z,100.00
2022-12-24T15:18:40.925Z,100.00
2022-12-24T15:21:17.786Z,100.00
2022-12-24T15:23:49.542Z,100.00
2022-12-24T15:26:24.253Z,100.00
2022-12-24T15:29:00.073Z,100.00
2022-12-24T15:31:31.350Z,100.00
2022-12-24T15:34:00.323Z,100.00
2022-12-24T15:36:32.437Z,100.00
2022-12-24T15:39:04.294Z,100.00
2022-12-24T15:41:59.188Z,100.00
2022-12-24T15:44:28.090Z,100.00
2022-12-24T15:47:00.169Z,100.00
2022-12-24T15:49:29.852Z,100.00
2022-12-24T15:52:05.733Z,100.00
2022-12-24T15:54:36.075Z,100.00
2022-12-24T15:57:15.230Z,100.00
2022-12-24T15:59:44.347Z,100.00
2022-12-24T16:02:39.455Z,100.00
2022-12-24T16:05:34.483Z,100.00
2022-12-24T16:08:08.502Z,100.00
2022-12-24T16:10:40.661Z,100.00
2022-12-24T16:13:15.945Z,100.00
2022-12-24T16:15:51.265Z,100.00
2022-12-24T16:18:24.443Z,100.00
2022-12-24T16:20:54.891Z,100.00
2022-12-24T16:23:25.454Z,100.00
2022-12-24T16:25:55.049Z,100.00
2022-12-24T16:28:23.608Z,100.00
2022-12-24T16:30:51.853Z,100.00
2022-12-24T16:33:23.392Z,100.00
2022-12-24T16:35:51.678Z,100.00
2022-12-24T16:38:19.965Z,100.00
2022-12-24T16:40:48.249Z,100.00
2022-12-24T16:43:35.405Z,100.00
2022-12-24T16:46:05.678Z,100.00
2022-12-24T16:48:38.779Z,100.00
2022-12-24T16:51:06.966Z,100.00
2022-12-24T16:53:35.119Z,100.00
2022-12-24T16:56:03.117Z,100.00
2022-12-24T16:58:32.944Z,100.00
2022-12-24T17:01:08.627Z,100.00
2022-12-24T17:03:37.477Z,100.00
2022-12-24T17:06:07.552Z,100.00
2022-12-24T17:08:36.961Z,100.00
2022-12-24T17:11:05.043Z,100.00
2022-12-24T17:13:34.758Z,100.00
2022-12-24T17:16:03.368Z,100.00
2022-12-24T17:18:31.875Z,100.00
2022-12-24T17:21:01.297Z,100.00
2022-12-24T17:23:29.513Z,100.00
2022-12-24T17:25:58.025Z,100.00
2022-12-24T17:28:26.588Z,100.00
2022-12-24T17:30:57.315Z,100.00
2022-12-24T17:33:25.773Z,100.00
2022-12-24T17:35:53.829Z,100.00
2022-12-24T17:38:22.024Z,100.00
2022-12-24T17:40:50.079Z,100.00
2022-12-24T17:43:18.521Z,100.00
2022-12-24T17:45:46.428Z,100.00
2022-12-24T17:48:16.030Z,100.00
2022-12-24T17:50:44.111Z,100.00
2022-12-24T17:53:12.423Z,100.00
2022-12-24T17:55:42.944Z,100.00
2022-12-24T17:58:11.759Z,100.00
2022-12-24T18:00:40.061Z,100.00
2022-12-24T18:03:08.882Z,100.00
2022-12-24T18:05:38.460Z,100.00
2022-12-24T18:08:07.643Z,100.00
2022-12-24T18:10:35.815Z,100.00
2022-12-24T18:13:04.663Z,100.00
2022-12-24T18:15:35.351Z,100.00
2022-12-24T18:18:04.380Z,100.00
2022-12-24T18:20:34.784Z,100.00
2022-12-24T18:23:04.989Z,100.00
2022-12-24T18:25:33.355Z,100.00
2022-12-24T18:28:01.549Z,100.00
2022-12-24T18:30:29.457Z,100.00
2022-12-24T18:32:57.891Z,100.00
2022-12-24T18:35:25.822Z,100.00
2022-12-24T18:37:54.009Z,100.00
2022-12-24T18:40:23.463Z,100.00
2022-12-24T18:42:51.604Z,100.00
2022-12-24T18:45:19.533Z,100.00
2022-12-24T18:47:48.276Z,100.00
2022-12-24T18:50:16.236Z,100.00
2022-12-24T18:52:44.560Z,100.00
2022-12-24T18:55:12.583Z,100.00
2022-12-24T18:57:42.142Z,100.00
2022-12-24T19:00:11.221Z,100.00
2022-12-24T19:02:39.572Z,100.00
2022-12-24T19:05:08.731Z,100.00
2022-12-24T19:07:37.251Z,100.00
2022-12-24T19:10:06.043Z,100.00
2022-12-24T19:12:34.380Z,100.00
2022-12-24T19:15:04.415Z,100.00
2022-12-24T19:17:32.825Z,99.59
2022-12-24T19:20:00.761Z,99.16
2022-12-24T19:22:29.340Z,99.16
2022-12-24T19:24:57.424Z,98.37
2022-12-24T19:27:25.607Z,98.37
2022-12-24T19:29:53.728Z,96.84
2022-12-24T19:32:23.414Z,97.08
2022-12-24T19:34:51.299Z,97.42
2022-12-24T19:37:19.635Z,98.60
2022-12-24T19:39:47.664Z,98.59
2022-12-24T19:42:15.807Z,99.29
2022-12-24T19:44:43.788Z,99.32
2022-12-24T19:47:12.041Z,98.93
2022-12-24T19:49:41.342Z,98.23
2022-12-24T19:52:09.691Z,99.13
2022-12-24T19:54:37.798Z,99.03
2022-12-24T19:57:06.036Z,99.23
2022-12-24T19:59:34.136Z,99.63
2022-12-24T20:02:02.579Z,99.87
2022-12-24T20:04:30.615Z,100.00
2022-12-24T20:07:00.980Z,100.00
2022-12-24T20:09:31.419Z,100.00
2022-12-24T20:11:59.613Z,100.00
2022-12-24T20:14:27.775Z,100.00
2022-12-24T20:16:56.437Z,100.00
2022-12-24T20:19:24.399Z,100.00
2022-12-24T20:21:52.586Z,100.00
2022-12-24T20:24:22.008Z,100.00
2022-12-24T20:26:50.416Z,100.00
2022-12-24T20:29:18.317Z,100.00
2022-12-24T20:31:47.043Z,100.00
2022-12-24T20:34:15.128Z,100.00
2022-12-24T20:36:43.551Z,100.00
2022-12-24T20:39:13.372Z,100.00
2022-12-24T20:41:43.283Z,100.00
2022-12-24T20:44:11.978Z,100.00
2022-12-24T20:46:40.327Z,100.00
2022-12-24T20:49:08.223Z,100.00
2022-12-24T20:51:36.980Z,100.00
2022-12-24T20:54:05.230Z,100.00
2022-12-24T20:56:33.615Z,100.00
2022-12-24T20:59:03.056Z,100.00
2022-12-24T21:01:31.846Z,100.00
2022-12-24T21:04:04.602Z,100.00
2022-12-24T21:06:33.911Z,100.00
2022-12-24T21:09:02.617Z,100.00
2022-12-24T21:11:48.590Z,100.00
2022-12-24T21:14:19.318Z,100.00
2022-12-24T21:16:48.020Z,100.00
2022-12-24T21:19:19.287Z,100.00
2022-12-24T21:21:48.264Z,100.00
2022-12-24T21:24:17.736Z,100.00
2022-12-24T21:26:45.993Z,100.00
2022-12-24T21:29:14.589Z,100.00
2022-12-24T21:31:44.124Z,100.00
2022-12-24T21:34:12.123Z,100.00
2022-12-24T21:36:42.507Z,100.00
2022-12-24T21:39:10.478Z,100.00
2022-12-24T21:41:38.708Z,100.00
2022-12-24T21:44:06.693Z,100.00
2022-12-24T21:46:34.903Z,100.00
2022-12-24T21:49:21.570Z,100.00
2022-12-24T21:51:49.843Z,100.00
2022-12-24T21:54:31.478Z,100.00
2022-12-24T21:57:19.073Z,100.00
2022-12-24T21:59:47.593Z,100.00
2022-12-24T22:02:17.033Z,100.00
2022-12-24T22:04:47.357Z,100.00
2022-12-24T22:07:39.750Z,100.00
2022-12-24T22:10:26.423Z,100.00
2022-12-24T22:12:55.607Z,100.00
2022-12-24T22:15:23.810Z,100.00
2022-12-24T22:17:52.153Z,100.00
2022-12-24T22:20:21.458Z,100.00
2022-12-24T22:22:49.875Z,100.00
2022-12-24T22:25:18.404Z,100.00
2022-12-24T22:27:46.722Z,100.00
2022-12-24T22:30:14.809Z,100.00
2022-12-24T22:32:42.964Z,99.30
2022-12-24T22:35:11.429Z,98.91
2022-12-24T22:37:41.156Z,98.76
2022-12-24T22:40:10.946Z,99.07
2022-12-24T22:42:40.773Z,99.28
2022-12-24T22:45:09.456Z,99.22
2022-12-24T22:47:37.766Z,99.66
2022-12-24T22:50:06.580Z,100.00
2022-12-24T22:52:35.904Z,100.00
2022-12-24T22:55:06.025Z,100.00
2022-12-24T22:57:34.296Z,100.00
2022-12-24T23:00:02.435Z,100.00
2022-12-24T23:02:30.892Z,100.00
2022-12-24T23:04:59.207Z,100.00
2022-12-24T23:07:28.306Z,100.00
2022-12-24T23:09:56.360Z,100.00
2022-12-24T23:12:40.155Z,100.00
2022-12-24T23:15:09.338Z,100.00
2022-12-24T23:17:37.587Z,100.00
2022-12-24T23:20:06.495Z,100.00
2022-12-24T23:22:34.631Z,100.00
2022-12-24T23:25:02.863Z,100.00
2022-12-24T23:27:32.403Z,100.00
2022-12-24T23:30:00.318Z,100.00
2022-12-24T23:32:28.726Z,100.00
2022-12-24T23:34:56.633Z,100.00
2022-12-24T23:37:28.254Z,100.00
2022-12-24T23:40:01.426Z,100.00
2022-12-24T23:42:30.151Z,100.00
2022-12-24T23:44:59.383Z,100.00
2022-12-24T23:47:28.500Z,100.00
2022-12-24T23:49:56.430Z,100.00
2022-12-24T23:52:24.587Z,100.00
2022-12-24T23:54:52.741Z,100.00
2022-12-24T23:57:20.938Z,100.00
2022-12-24T23:59:49.066Z,100.00
